Portada
METAR-TAF:

METAR-TAF

Aeropuertos :

Rurrenabaque, Bolivia

latitud: 14-28S, longitud: 067-34W, altitud: 204 m

Observación

El informe se hizo hace 5 horas y 42 minutos, a las 22:00 UTC
Viento calma
Temperatura 32°C
Humedad 67%
Presión 1003 hPa
Visibilidad 10 km o más
Nubes dispersas a una altura de 2000 ft

METAR: SLRQ 212200Z 00000KT 9999 SCT020 32/25 Q1003

Hora: 23:42 (03:42 UTC)


TAF: falta

Observaciones y pronósticos meteorológicos de más de 4000 aeropuertos (mensajes METAR y TAF).

Los puntos amarillos y rojos representan las estaciones disponibles.

Ponga el ratón en el punto deseado para ver el nombre de la estación.

Haga clic para ver las observaciones y los pronósticos meteorológicos.

Para cambiar el mapa : haga clic en los botones verdes con una cruz de color negro para hacer un zoom, en el botón verde con un guión para alejar o en las flechas verdes para mapas adyacentes.


METAR-TAF: